Linda — OJML — position and weather

sailwx.info

Track history (hours):
 
Tides and Currents Weather Stations Pressure Air Temp Water Temp Dewpoint Dewpoint Depression Visibility Wind Speed Wind Dir Waves Ship Positions

Linda

Last reported at 2014-Oct-01 01:33 UTC. Time now 2014-Oct-01 04:03 UTC.
Position N 54°12' E 007°11'.

Length 141 m; draft 8.1 m.

Type: Ship (hazmat cat A). MMSI: 230984000.

Date/timePositionNaut miles runAvg speedWind from/ knotsBaromVisibWave heightAir tempDewpointWater temp
2014-Oct-01 01:33N 54°12' E 007°11'1515.5
2014-Oct-01 00:33N 54°10' E 007°37'1615.6
2014-Sep-30 23:33N 54°03' E 008°01'1414.4
2014-Sep-30 22:33N 53°59' E 008°24'1717.2
2014-Sep-30 21:33N 53°50' E 008°49'1211.9
2014-Sep-30 20:33N 53°54' E 009°09'3 3.3
2014-Sep-30 19:33N 53°56' E 009°13'18 7.7
2014-Sep-30 17:17N 54°11' E 009°29'3 3.6
2014-Sep-30 16:29N 54°12' E 009°33'8 3.9
2014-Sep-30 14:33N 54°18' E 009°41'6 6.2
2014-Sep-30 13:33N 54°22' E 009°49'7 6.6
2014-Sep-30 12:33N 54°21' E 010°01'5 4.6
2014-Sep-30 11:33N 54°22' E 010°09'7 6.7
2014-Sep-30 10:33N 54°28' E 010°15'1514.9
2014-Sep-30 09:33N 54°35' E 010°37'1616.1
2014-Sep-30 08:34N 54°36' E 011°05'1616.0
2014-Sep-30 07:34N 54°31' E 011°31'1616.1
2014-Sep-30 06:34N 54°27' E 011°58'1514.6
2014-Sep-30 05:33N 54°37' E 012°16'1616.4
2014-Sep-30 04:33N 54°46' E 012°39'1616.4
2014-Sep-30 03:34N 54°47' E 013°08'1717.4
2014-Sep-30 02:33N 54°45' E 013°38'1717.1
2014-Sep-30 01:32N 54°41' E 014°07'1616.6
2014-Sep-30 00:33N 54°39' E 014°35'1717.1
2014-Sep-29 23:34N 54°45' E 015°02'1716.8
2014-Sep-29 22:34N 54°51' E 015°29'1716.8
2014-Sep-29 21:33N 54°57' E 015°56'1816.7
2014-Sep-29 20:30N 55°04' E 016°25'1716.4
2014-Sep-29 19:29N 55°08' E 016°53'1816.4
2014-Sep-29 18:25N 55°13' E 017°23'1516.6
2014-Sep-29 17:31N 55°17' E 017°48'1717.0
2014-Sep-29 16:32N 55°21' E 018°16'1616.8
2014-Sep-29 15:33N 55°25' E 018°44'2516.4
2014-Sep-29 14:03N 55°31' E 019°27'1616.6
2014-Sep-29 13:07N 55°35' E 019°53'1116.5
2014-Sep-29 12:28N 55°38' E 020°11'1716.4
2014-Sep-29 11:26N 55°43' E 020°40'  
2014-Sep-27 03:15N 59°35' E 021°15'1014.6
2014-Sep-27 02:33N 59°33' E 021°34'5412.9
2014-Sep-26 22:23N 59°40' E 023°20'1012.1
2014-Sep-26 21:33N 59°42' E 023°39'1413.8
2014-Sep-26 20:34N 59°46' E 024°05'3215.2
2014-Sep-26 18:29N 59°51' E 025°07'3815.9
2014-Sep-26 16:07N 59°60' E 026°21'916.3
2014-Sep-26 15:34N 60°02' E 026°38'3 0.1
2014-Sep-25 07:21N 59°59' E 026°42'  
2014-Sep-22 09:21N 55°40' E 015°32'1616.2
2014-Sep-22 08:20N 55°32' E 015°07'1516.1
2014-Sep-22 07:24N 55°24' E 014°43'1315.8
2014-Sep-22 06:33N 55°15' E 014°27'1715.6
2014-Sep-22 05:29N 55°02' E 014°08'1515.9
2014-Sep-22 04:33N 54°56' E 013°45'1616.3
2014-Sep-22 03:33N 54°50' E 013°19'1716.6
2014-Sep-22 02:33N 54°44' E 012°52'1616.2
2014-Sep-22 01:33N 54°35' E 012°28'1616.2
2014-Sep-22 00:33N 54°25' E 012°07'1616.4
2014-Sep-21 23:33N 54°27' E 011°39'1817.6
2014-Sep-21 22:33N 54°34' E 011°11'75 7.4
2014-Sep-21 12:26N 53°59' E 009°17'4 2.8
2014-Sep-21 11:09N 53°56' E 009°13'4 5.8
2014-Sep-21 10:32N 53°54' E 009°09'0 0.0
2014-Sep-21 09:33N 53°54' E 009°09'2 2.0
2014-Sep-21 08:33N 53°53' E 009°06'9 8.7
2014-Sep-21 07:33N 53°50' E 008°52'1514.7
2014-Sep-21 06:33N 53°58' E 008°31'1615.9
2014-Sep-21 05:33N 53°59' E 008°04'  
Track history (hours):
 
Tides and Currents Weather Stations Pressure Air Temp Water Temp Dewpoint Dewpoint Depression Visibility Wind Speed Wind Dir Waves Ship Positions

Linda

Last reported at 2014-Oct-01 01:33 UTC. Time now 2014-Oct-01 04:03 UTC.
Position N 54°12' E 007°11'.

Length 141 m; draft 8.1 m.

Type: Ship (hazmat cat A). MMSI: 230984000.

Date/timePositionNaut miles runAvg speedWind from/ knotsBaromVisibWave heightAir tempDewpointWater temp
2014-Oct-01 01:33N 54°12' E 007°11'1515.5
2014-Oct-01 00:33N 54°10' E 007°37'1615.6
2014-Sep-30 23:33N 54°03' E 008°01'1414.4
2014-Sep-30 22:33N 53°59' E 008°24'1717.2
2014-Sep-30 21:33N 53°50' E 008°49'1211.9
2014-Sep-30 20:33N 53°54' E 009°09'3 3.3
2014-Sep-30 19:33N 53°56' E 009°13'18 7.7
2014-Sep-30 17:17N 54°11' E 009°29'3 3.6
2014-Sep-30 16:29N 54°12' E 009°33'8 3.9
2014-Sep-30 14:33N 54°18' E 009°41'6 6.2
2014-Sep-30 13:33N 54°22' E 009°49'7 6.6
2014-Sep-30 12:33N 54°21' E 010°01'5 4.6
2014-Sep-30 11:33N 54°22' E 010°09'7 6.7
2014-Sep-30 10:33N 54°28' E 010°15'1514.9
2014-Sep-30 09:33N 54°35' E 010°37'1616.1
2014-Sep-30 08:34N 54°36' E 011°05'1616.0
2014-Sep-30 07:34N 54°31' E 011°31'1616.1
2014-Sep-30 06:34N 54°27' E 011°58'1514.6
2014-Sep-30 05:33N 54°37' E 012°16'1616.4
2014-Sep-30 04:33N 54°46' E 012°39'1616.4
2014-Sep-30 03:34N 54°47' E 013°08'1717.4
2014-Sep-30 02:33N 54°45' E 013°38'1717.1
2014-Sep-30 01:32N 54°41' E 014°07'1616.6
2014-Sep-30 00:33N 54°39' E 014°35'1717.1
2014-Sep-29 23:34N 54°45' E 015°02'1716.8
2014-Sep-29 22:34N 54°51' E 015°29'1716.8
2014-Sep-29 21:33N 54°57' E 015°56'1816.7
2014-Sep-29 20:30N 55°04' E 016°25'1716.4
2014-Sep-29 19:29N 55°08' E 016°53'1816.4
2014-Sep-29 18:25N 55°13' E 017°23'1516.6
2014-Sep-29 17:31N 55°17' E 017°48'1717.0
2014-Sep-29 16:32N 55°21' E 018°16'1616.8
2014-Sep-29 15:33N 55°25' E 018°44'2516.4
2014-Sep-29 14:03N 55°31' E 019°27'1616.6
2014-Sep-29 13:07N 55°35' E 019°53'1116.5
2014-Sep-29 12:28N 55°38' E 020°11'1716.4
2014-Sep-29 11:26N 55°43' E 020°40'  
2014-Sep-27 03:15N 59°35' E 021°15'1014.6
2014-Sep-27 02:33N 59°33' E 021°34'5412.9
2014-Sep-26 22:23N 59°40' E 023°20'1012.1
2014-Sep-26 21:33N 59°42' E 023°39'1413.8
2014-Sep-26 20:34N 59°46' E 024°05'3215.2
2014-Sep-26 18:29N 59°51' E 025°07'3815.9
2014-Sep-26 16:07N 59°60' E 026°21'916.3
2014-Sep-26 15:34N 60°02' E 026°38'3 0.1
2014-Sep-25 07:21N 59°59' E 026°42'  
2014-Sep-22 09:21N 55°40' E 015°32'1616.2
2014-Sep-22 08:20N 55°32' E 015°07'1516.1
2014-Sep-22 07:24N 55°24' E 014°43'1315.8
2014-Sep-22 06:33N 55°15' E 014°27'1715.6
2014-Sep-22 05:29N 55°02' E 014°08'1515.9
2014-Sep-22 04:33N 54°56' E 013°45'1616.3
2014-Sep-22 03:33N 54°50' E 013°19'1716.6
2014-Sep-22 02:33N 54°44' E 012°52'1616.2
2014-Sep-22 01:33N 54°35' E 012°28'1616.2
2014-Sep-22 00:33N 54°25' E 012°07'1616.4
2014-Sep-21 23:33N 54°27' E 011°39'1817.6
2014-Sep-21 22:33N 54°34' E 011°11'75 7.4
2014-Sep-21 12:26N 53°59' E 009°17'4 2.8
2014-Sep-21 11:09N 53°56' E 009°13'4 5.8
2014-Sep-21 10:32N 53°54' E 009°09'0 0.0
2014-Sep-21 09:33N 53°54' E 009°09'2 2.0
2014-Sep-21 08:33N 53°53' E 009°06'9 8.7
2014-Sep-21 07:33N 53°50' E 008°52'1514.7
2014-Sep-21 06:33N 53°58' E 008°31'1615.9
2014-Sep-21 05:33N 53°59' E 008°04'  

Dump ship's entire track history